Airfield :







YOU CAN JOIN US ON...

 
LOGIN :

Register | Disclaimer

   EN    FR    IT 

 









Legend :    VFR   Marginal VFR   IFR   Intensive IFR   Very Intensive IFR
Visi :
Ceiling :
>= 8 km
>= 3000ft
5 to 8 km
1000 to 3000 ft
1500m to 5 km
500 to 1000 ft
800 to 1500m
200 to 500 ft
< 800m
< 200 ft
Symbols :   Thunderstorms  Fog  Heavy snow  Heavy precipitations  Wind > 20 kt






- Airport Elevation : 68 ft
- IATA code : YFC


CYFC - Fredericton

CURRENT METAR :
  • 211600Z AUTO 21012KT 170V250 9SM CLR 25/16 A2985 RMK SLP109 DENSITY ALT 1300FT

EXPIRED METARs :
  • 211500Z AUTO 23007G15KT 180V250 9SM CLR 22/14 A2988 RMK SLP119 DENSITY ALT 1000FT
  • 211400Z AUTO 19007KT 180V240 9SM CLR 19/13 A2988 RMK SLP121 DENSITY ALT 600FT
  • 211300Z AUTO 24008KT 190V280 9SM SCT013 17/13 A2990 RMK SLP126 DENSITY ALT 300FT
  • 211258Z AUTO 22007KT 190V280 9SM SCT013 16/12 A2990 RMK SLP127 DENSITY ALT 300FT
  • 211200Z AUTO 23009KT 9SM OVC011 15/12 A2991 RMK SLP130

TAF TAF CYFC
Valid from the 21 at 12:00 until the 22 at 00:00 UTC


211140Z 2112/2124 22008KT P6SM OVC012
TEMPO 2112/2114 SCT012
FM211400 20008KT P6SM FEW030 SCT200
FM212000 26010KT P6SM BKN070
TEMPO 2120/2124 P6SM -SHRA RMK FCST BASED ON AUTO OBS. NXT FCST BY 211800Z
CZQM FIR / North America



MET'MAP, your aeronautical weather chart ! - Copyright ORBIFLY December 2007 - Disclaimer

ORBIFLY MET'MAP TEAM :

Programming & Development : Alexandra Zaïnal
Original concept : Baudouin d'Aumeries
Technical & hardware support : Manuel Goepfert
Assistance : Marc-Olivier Méhu




SOURCES & CREDITS :

   NOAA